sensor_id;sensor_type;location;lat;lon;timestamp;temperature;humidity
61255;DHT22;47128;47.530;8.584;2023-04-24T00:01:26;12.00;99.90
61255;DHT22;47128;47.530;8.584;2023-04-24T00:03:54;12.00;99.90
61255;DHT22;47128;47.530;8.584;2023-04-24T00:06:21;12.00;99.90
61255;DHT22;47128;47.530;8.584;2023-04-24T00:08:48;11.90;99.90
61255;DHT22;47128;47.530;8.584;2023-04-24T00:11:14;12.00;99.90
61255;DHT22;47128;47.530;8.584;2023-04-24T00:13:40;12.00;99.90
61255;DHT22;47128;47.530;8.584;2023-04-24T00:16:05;12.10;99.90
61255;DHT22;47128;47.530;8.584;2023-04-24T00:18:31;12.20;99.90
61255;DHT22;47128;47.530;8.584;2023-04-24T00:20:57;12.20;99.90
61255;DHT22;47128;47.530;8.584;2023-04-24T00:23:22;12.30;99.90
61255;DHT22;47128;47.530;8.584;2023-04-24T00:25:48;12.30;99.90
61255;DHT22;47128;47.530;8.584;2023-04-24T00:28:13;12.30;99.90
61255;DHT22;47128;47.530;8.584;2023-04-24T00:30:39;12.10;99.90
61255;DHT22;47128;47.530;8.584;2023-04-24T00:33:05;12.10;99.90
61255;DHT22;47128;47.530;8.584;2023-04-24T00:35:30;12.00;99.90
61255;DHT22;47128;47.530;8.584;2023-04-24T00:37:56;12.00;99.90
61255;DHT22;47128;47.530;8.584;2023-04-24T00:40:22;11.90;99.90
61255;DHT22;47128;47.530;8.584;2023-04-24T00:42:47;11.90;99.90
61255;DHT22;47128;47.530;8.584;2023-04-24T00:45:13;11.90;99.90
61255;DHT22;47128;47.530;8.584;2023-04-24T00:47:39;11.80;99.90
61255;DHT22;47128;47.530;8.584;2023-04-24T00:50:06;11.90;99.90
61255;DHT22;47128;47.530;8.584;2023-04-24T00:52:32;11.90;99.90
61255;DHT22;47128;47.530;8.584;2023-04-24T00:54:58;11.80;99.90
61255;DHT22;47128;47.530;8.584;2023-04-24T00:57:23;11.70;99.90
61255;DHT22;47128;47.530;8.584;2023-04-24T00:59:50;11.70;99.90
61255;DHT22;47128;47.530;8.584;2023-04-24T01:02:17;11.80;99.90
61255;DHT22;47128;47.530;8.584;2023-04-24T01:04:43;11.70;99.90
61255;DHT22;47128;47.530;8.584;2023-04-24T01:07:08;11.70;99.90
61255;DHT22;47128;47.530;8.584;2023-04-24T01:09:39;11.60;99.90
61255;DHT22;47128;47.530;8.584;2023-04-24T01:12:07;11.60;99.90
61255;DHT22;47128;47.530;8.584;2023-04-24T01:14:33;11.40;99.90
61255;DHT22;47128;47.530;8.584;2023-04-24T01:16:58;11.40;99.90
61255;DHT22;47128;47.530;8.584;2023-04-24T01:19:24;11.40;99.90
61255;DHT22;47128;47.530;8.584;2023-04-24T01:21:50;11.40;99.90
61255;DHT22;47128;47.530;8.584;2023-04-24T01:24:16;11.40;99.90
61255;DHT22;47128;47.530;8.584;2023-04-24T01:26:44;11.50;99.90
61255;DHT22;47128;47.530;8.584;2023-04-24T01:29:10;11.60;99.90
61255;DHT22;47128;47.530;8.584;2023-04-24T01:31:36;11.60;99.90
61255;DHT22;47128;47.530;8.584;2023-04-24T01:34:02;11.60;99.90
61255;DHT22;47128;47.530;8.584;2023-04-24T01:36:28;11.60;99.90
61255;DHT22;47128;47.530;8.584;2023-04-24T01:38:55;11.60;99.90
61255;DHT22;47128;47.530;8.584;2023-04-24T01:41:21;11.60;99.90
61255;DHT22;47128;47.530;8.584;2023-04-24T01:43:47;11.60;99.90
61255;DHT22;47128;47.530;8.584;2023-04-24T01:46:13;11.50;99.90
61255;DHT22;47128;47.530;8.584;2023-04-24T01:48:39;11.50;99.90
61255;DHT22;47128;47.530;8.584;2023-04-24T01:51:05;11.30;99.90
61255;DHT22;47128;47.530;8.584;2023-04-24T01:53:30;11.30;99.90
61255;DHT22;47128;47.530;8.584;2023-04-24T01:55:56;11.40;99.90
61255;DHT22;47128;47.530;8.584;2023-04-24T01:58:22;11.40;99.90
61255;DHT22;47128;47.530;8.584;2023-04-24T02:00:48;11.40;99.90
61255;DHT22;47128;47.530;8.584;2023-04-24T02:03:13;11.20;99.90
61255;DHT22;47128;47.530;8.584;2023-04-24T02:05:39;11.10;99.90
61255;DHT22;47128;47.530;8.584;2023-04-24T02:08:04;11.30;99.90
61255;DHT22;47128;47.530;8.584;2023-04-24T02:10:30;11.20;99.90
61255;DHT22;47128;47.530;8.584;2023-04-24T02:12:56;11.20;99.90
61255;DHT22;47128;47.530;8.584;2023-04-24T02:15:21;11.20;99.90
61255;DHT22;47128;47.530;8.584;2023-04-24T02:17:47;11.10;99.90
61255;DHT22;47128;47.530;8.584;2023-04-24T02:20:13;11.10;99.90
61255;DHT22;47128;47.530;8.584;2023-04-24T02:22:39;11.10;99.90
61255;DHT22;47128;47.530;8.584;2023-04-24T02:25:05;11.20;99.90
61255;DHT22;47128;47.530;8.584;2023-04-24T02:27:30;11.20;99.90
61255;DHT22;47128;47.530;8.584;2023-04-24T02:29:56;11.20;99.90
61255;DHT22;47128;47.530;8.584;2023-04-24T02:32:21;11.20;99.90
61255;DHT22;47128;47.530;8.584;2023-04-24T02:34:47;11.20;99.90
61255;DHT22;47128;47.530;8.584;2023-04-24T02:37:13;12.30;99.90
61255;DHT22;47128;47.530;8.584;2023-04-24T02:39:39;11.00;99.90
61255;DHT22;47128;47.530;8.584;2023-04-24T02:42:05;10.90;99.90
61255;DHT22;47128;47.530;8.584;2023-04-24T02:44:30;10.90;99.90
61255;DHT22;47128;47.530;8.584;2023-04-24T02:46:56;10.90;99.90
61255;DHT22;47128;47.530;8.584;2023-04-24T02:49:21;10.90;99.90
61255;DHT22;47128;47.530;8.584;2023-04-24T02:51:47;10.90;99.90
61255;DHT22;47128;47.530;8.584;2023-04-24T02:54:12;10.90;99.90
61255;DHT22;47128;47.530;8.584;2023-04-24T02:56:38;10.90;99.90
61255;DHT22;47128;47.530;8.584;2023-04-24T02:59:04;11.00;99.90
61255;DHT22;47128;47.530;8.584;2023-04-24T03:01:30;11.00;99.90
61255;DHT22;47128;47.530;8.584;2023-04-24T03:03:56;11.00;99.90
61255;DHT22;47128;47.530;8.584;2023-04-24T03:06:22;10.90;99.90
61255;DHT22;47128;47.530;8.584;2023-04-24T03:08:48;11.00;99.90
61255;DHT22;47128;47.530;8.584;2023-04-24T03:11:13;11.00;99.90
61255;DHT22;47128;47.530;8.584;2023-04-24T03:13:39;11.00;99.90
61255;DHT22;47128;47.530;8.584;2023-04-24T03:16:05;11.00;99.90
61255;DHT22;47128;47.530;8.584;2023-04-24T03:21:37;11.00;99.90
61255;DHT22;47128;47.530;8.584;2023-04-24T03:24:06;10.90;99.90
61255;DHT22;47128;47.530;8.584;2023-04-24T03:26:32;10.90;99.90
61255;DHT22;47128;47.530;8.584;2023-04-24T03:28:58;10.90;99.90
61255;DHT22;47128;47.530;8.584;2023-04-24T03:31:23;10.90;99.90
61255;DHT22;47128;47.530;8.584;2023-04-24T03:33:51;10.90;99.90
61255;DHT22;47128;47.530;8.584;2023-04-24T03:36:16;11.00;99.90
61255;DHT22;47128;47.530;8.584;2023-04-24T03:38:42;10.90;99.90
61255;DHT22;47128;47.530;8.584;2023-04-24T03:41:08;10.90;99.90
61255;DHT22;47128;47.530;8.584;2023-04-24T03:43:33;10.90;99.90
61255;DHT22;47128;47.530;8.584;2023-04-24T03:46:00;10.90;99.90
61255;DHT22;47128;47.530;8.584;2023-04-24T03:48:25;10.90;99.90
61255;DHT22;47128;47.530;8.584;2023-04-24T03:50:51;10.90;99.90
61255;DHT22;47128;47.530;8.584;2023-04-24T03:53:17;10.90;99.90
61255;DHT22;47128;47.530;8.584;2023-04-24T03:55:43;11.00;99.90
61255;DHT22;47128;47.530;8.584;2023-04-24T03:58:09;10.90;99.90
61255;DHT22;47128;47.530;8.584;2023-04-24T04:00:34;10.90;99.90
61255;DHT22;47128;47.530;8.584;2023-04-24T04:03:00;10.90;99.90
61255;DHT22;47128;47.530;8.584;2023-04-24T04:05:25;10.90;99.90
61255;DHT22;47128;47.530;8.584;2023-04-24T04:07:50;10.90;99.90
61255;DHT22;47128;47.530;8.584;2023-04-24T04:10:16;10.70;99.90
61255;DHT22;47128;47.530;8.584;2023-04-24T04:12:42;10.70;99.90
61255;DHT22;47128;47.530;8.584;2023-04-24T04:15:08;10.70;99.90
61255;DHT22;47128;47.530;8.584;2023-04-24T04:17:34;10.70;99.90
61255;DHT22;47128;47.530;8.584;2023-04-24T04:19:59;10.70;99.90
61255;DHT22;47128;47.530;8.584;2023-04-24T04:22:26;10.70;99.90
61255;DHT22;47128;47.530;8.584;2023-04-24T04:24:51;10.80;99.90
61255;DHT22;47128;47.530;8.584;2023-04-24T04:27:17;10.80;99.90
61255;DHT22;47128;47.530;8.584;2023-04-24T04:29:44;10.80;99.90
61255;DHT22;47128;47.530;8.584;2023-04-24T04:32:09;10.80;99.90
61255;DHT22;47128;47.530;8.584;2023-04-24T04:34:35;10.80;99.90
61255;DHT22;47128;47.530;8.584;2023-04-24T04:37:02;10.90;99.90
61255;DHT22;47128;47.530;8.584;2023-04-24T04:39:28;10.90;99.90
61255;DHT22;47128;47.530;8.584;2023-04-24T04:41:55;11.00;99.90
61255;DHT22;47128;47.530;8.584;2023-04-24T04:44:21;11.00;99.90
61255;DHT22;47128;47.530;8.584;2023-04-24T04:46:46;10.90;99.90
61255;DHT22;47128;47.530;8.584;2023-04-24T04:49:12;10.80;99.90
61255;DHT22;47128;47.530;8.584;2023-04-24T04:51:38;10.80;99.90
61255;DHT22;47128;47.530;8.584;2023-04-24T04:54:03;10.80;99.90
61255;DHT22;47128;47.530;8.584;2023-04-24T04:56:29;10.80;99.90
61255;DHT22;47128;47.530;8.584;2023-04-24T04:58:55;10.70;99.90
61255;DHT22;47128;47.530;8.584;2023-04-24T05:01:20;10.80;99.90
61255;DHT22;47128;47.530;8.584;2023-04-24T05:03:48;10.60;99.90
61255;DHT22;47128;47.530;8.584;2023-04-24T05:06:13;10.60;99.90
61255;DHT22;47128;47.530;8.584;2023-04-24T05:08:39;10.70;99.90
61255;DHT22;47128;47.530;8.584;2023-04-24T05:14:08;10.70;99.90
61255;DHT22;47128;47.530;8.584;2023-04-24T05:16:34;10.70;99.90
61255;DHT22;47128;47.530;8.584;2023-04-24T05:18:59;10.70;99.90
61255;DHT22;47128;47.530;8.584;2023-04-24T05:21:25;10.70;99.90
61255;DHT22;47128;47.530;8.584;2023-04-24T05:23:52;10.60;99.90
61255;DHT22;47128;47.530;8.584;2023-04-24T05:26:17;10.70;99.90
61255;DHT22;47128;47.530;8.584;2023-04-24T05:28:43;10.70;99.90
61255;DHT22;47128;47.530;8.584;2023-04-24T05:31:08;10.70;99.90
61255;DHT22;47128;47.530;8.584;2023-04-24T05:33:34;10.70;99.90
61255;DHT22;47128;47.530;8.584;2023-04-24T05:36:00;10.80;99.90
61255;DHT22;47128;47.530;8.584;2023-04-24T05:38:27;10.80;99.90
61255;DHT22;47128;47.530;8.584;2023-04-24T05:40:53;10.80;99.90
61255;DHT22;47128;47.530;8.584;2023-04-24T05:43:18;10.90;99.90
61255;DHT22;47128;47.530;8.584;2023-04-24T05:48:48;11.00;99.90
61255;DHT22;47128;47.530;8.584;2023-04-24T05:51:14;11.30;99.90
61255;DHT22;47128;47.530;8.584;2023-04-24T05:59:45;12.00;99.90
61255;DHT22;47128;47.530;8.584;2023-04-24T06:05:13;12.60;99.90
61255;DHT22;47128;47.530;8.584;2023-04-24T06:07:40;12.60;99.90
61255;DHT22;47128;47.530;8.584;2023-04-24T06:10:05;13.20;99.90
61255;DHT22;47128;47.530;8.584;2023-04-24T06:12:31;13.20;99.90
61255;DHT22;47128;47.530;8.584;2023-04-24T06:14:58;13.10;99.90
61255;DHT22;47128;47.530;8.584;2023-04-24T06:17:23;12.70;99.90
61255;DHT22;47128;47.530;8.584;2023-04-24T06:19:49;12.60;99.90
61255;DHT22;47128;47.530;8.584;2023-04-24T06:27:44;12.40;99.90
61255;DHT22;47128;47.530;8.584;2023-04-24T06:30:11;12.40;99.90
61255;DHT22;47128;47.530;8.584;2023-04-24T06:32:38;12.30;99.90
61255;DHT22;47128;47.530;8.584;2023-04-24T06:35:04;12.40;99.90
61255;DHT22;47128;47.530;8.584;2023-04-24T06:37:29;12.40;99.90
61255;DHT22;47128;47.530;8.584;2023-04-24T06:39:55;12.50;99.90
61255;DHT22;47128;47.530;8.584;2023-04-24T06:42:21;12.50;99.90
61255;DHT22;47128;47.530;8.584;2023-04-24T06:44:47;12.50;99.90
61255;DHT22;47128;47.530;8.584;2023-04-24T06:47:13;12.70;99.90
61255;DHT22;47128;47.530;8.584;2023-04-24T06:49:42;12.70;99.60
61255;DHT22;47128;47.530;8.584;2023-04-24T06:52:15;12.80;99.40
61255;DHT22;47128;47.530;8.584;2023-04-24T06:54:47;12.50;99.80
61255;DHT22;47128;47.530;8.584;2023-04-24T06:57:13;12.30;99.90
61255;DHT22;47128;47.530;8.584;2023-04-24T06:59:38;12.20;99.90
61255;DHT22;47128;47.530;8.584;2023-04-24T07:02:04;12.10;99.90
61255;DHT22;47128;47.530;8.584;2023-04-24T07:04:30;12.10;99.90
61255;DHT22;47128;47.530;8.584;2023-04-24T07:15:50;15.20;95.80
61255;DHT22;47128;47.530;8.584;2023-04-24T07:18:17;15.50;94.80
61255;DHT22;47128;47.530;8.584;2023-04-24T07:20:43;15.40;95.00
61255;DHT22;47128;47.530;8.584;2023-04-24T07:23:09;15.30;95.40
61255;DHT22;47128;47.530;8.584;2023-04-24T07:25:35;15.30;95.10
61255;DHT22;47128;47.530;8.584;2023-04-24T07:28:01;15.20;95.30
61255;DHT22;47128;47.530;8.584;2023-04-24T07:36:33;15.30;94.60
61255;DHT22;47128;47.530;8.584;2023-04-24T07:38:59;15.00;94.60
61255;DHT22;47128;47.530;8.584;2023-04-24T07:41:26;14.50;95.40
61255;DHT22;47128;47.530;8.584;2023-04-24T07:46:20;12.80;98.90
61255;DHT22;47128;47.530;8.584;2023-04-24T07:52:01;11.40;99.90
61255;DHT22;47128;47.530;8.584;2023-04-24T08:06:40;11.30;98.60
61255;DHT22;47128;47.530;8.584;2023-04-24T08:09:06;11.50;97.60
61255;DHT22;47128;47.530;8.584;2023-04-24T08:11:31;11.40;98.60
61255;DHT22;47128;47.530;8.584;2023-04-24T08:13:58;11.60;96.40
61255;DHT22;47128;47.530;8.584;2023-04-24T08:16:23;12.20;97.10
61255;DHT22;47128;47.530;8.584;2023-04-24T08:18:50;12.60;95.30
61255;DHT22;47128;47.530;8.584;2023-04-24T08:21:15;12.30;95.40
61255;DHT22;47128;47.530;8.584;2023-04-24T08:23:45;12.20;95.60
61255;DHT22;47128;47.530;8.584;2023-04-24T08:26:11;11.90;95.70
61255;DHT22;47128;47.530;8.584;2023-04-24T08:31:51;11.60;96.30
61255;DHT22;47128;47.530;8.584;2023-04-24T08:34:17;11.40;96.50
61255;DHT22;47128;47.530;8.584;2023-04-24T08:36:42;11.40;96.80
61255;DHT22;47128;47.530;8.584;2023-04-24T08:39:08;11.40;96.30
61255;DHT22;47128;47.530;8.584;2023-04-24T08:41:34;11.50;96.10
61255;DHT22;47128;47.530;8.584;2023-04-24T08:43:59;11.70;96.50
61255;DHT22;47128;47.530;8.584;2023-04-24T08:52:33;14.00;93.50
61255;DHT22;47128;47.530;8.584;2023-04-24T08:58:01;14.10;92.50
61255;DHT22;47128;47.530;8.584;2023-04-24T09:00:34;14.20;92.50
61255;DHT22;47128;47.530;8.584;2023-04-24T09:03:03;14.00;93.60
61255;DHT22;47128;47.530;8.584;2023-04-24T09:05:32;13.60;93.00
61255;DHT22;47128;47.530;8.584;2023-04-24T09:08:14;13.20;93.60
61255;DHT22;47128;47.530;8.584;2023-04-24T09:31:18;13.10;93.70
61255;DHT22;47128;47.530;8.584;2023-04-24T09:33:57;13.20;93.70
61255;DHT22;47128;47.530;8.584;2023-04-24T09:36:31;13.70;93.90
61255;DHT22;47128;47.530;8.584;2023-04-24T09:39:01;14.00;93.10
61255;DHT22;47128;47.530;8.584;2023-04-24T09:41:27;14.10;92.70
61255;DHT22;47128;47.530;8.584;2023-04-24T09:43:54;14.10;92.00
61255;DHT22;47128;47.530;8.584;2023-04-24T09:46:20;14.00;91.30
61255;DHT22;47128;47.530;8.584;2023-04-24T09:48:50;13.60;92.00
61255;DHT22;47128;47.530;8.584;2023-04-24T09:51:16;13.50;92.60
61255;DHT22;47128;47.530;8.584;2023-04-24T09:53:46;13.70;92.30
61255;DHT22;47128;47.530;8.584;2023-04-24T09:56:12;14.00;91.60
61255;DHT22;47128;47.530;8.584;2023-04-24T09:58:38;13.60;91.60
61255;DHT22;47128;47.530;8.584;2023-04-24T10:01:04;13.20;91.80
61255;DHT22;47128;47.530;8.584;2023-04-24T10:06:34;13.10;92.20
61255;DHT22;47128;47.530;8.584;2023-04-24T10:09:02;13.50;91.90
61255;DHT22;47128;47.530;8.584;2023-04-24T10:11:34;13.80;91.50
61255;DHT22;47128;47.530;8.584;2023-04-24T10:17:03;14.50;90.40
61255;DHT22;47128;47.530;8.584;2023-04-24T10:19:29;15.00;90.30
61255;DHT22;47128;47.530;8.584;2023-04-24T10:21:56;15.10;90.20
61255;DHT22;47128;47.530;8.584;2023-04-24T10:24:38;14.90;89.70
61255;DHT22;47128;47.530;8.584;2023-04-24T10:27:16;14.60;88.40
61255;DHT22;47128;47.530;8.584;2023-04-24T10:29:47;14.80;90.00
61255;DHT22;47128;47.530;8.584;2023-04-24T10:38:13;16.90;85.50
61255;DHT22;47128;47.530;8.584;2023-04-24T10:43:42;18.80;79.50
61255;DHT22;47128;47.530;8.584;2023-04-24T10:52:03;17.80;75.90
61255;DHT22;47128;47.530;8.584;2023-04-24T10:54:35;17.20;76.10
61255;DHT22;47128;47.530;8.584;2023-04-24T10:59:49;15.50;81.50
61255;DHT22;47128;47.530;8.584;2023-04-24T11:02:17;15.60;80.00
61255;DHT22;47128;47.530;8.584;2023-04-24T11:04:43;15.50;80.60
61255;DHT22;47128;47.530;8.584;2023-04-24T11:07:10;15.30;80.30
61255;DHT22;47128;47.530;8.584;2023-04-24T11:09:37;15.70;80.70
61255;DHT22;47128;47.530;8.584;2023-04-24T11:12:06;15.90;80.90
61255;DHT22;47128;47.530;8.584;2023-04-24T11:17:30;15.20;79.50
61255;DHT22;47128;47.530;8.584;2023-04-24T11:20:00;15.70;80.80
61255;DHT22;47128;47.530;8.584;2023-04-24T11:22:26;16.30;78.20
61255;DHT22;47128;47.530;8.584;2023-04-24T11:24:53;16.60;77.60
61255;DHT22;47128;47.530;8.584;2023-04-24T11:30:22;16.60;79.10
61255;DHT22;47128;47.530;8.584;2023-04-24T11:35:51;16.60;77.50
61255;DHT22;47128;47.530;8.584;2023-04-24T11:38:17;16.90;78.50
61255;DHT22;47128;47.530;8.584;2023-04-24T11:40:42;17.40;77.70
61255;DHT22;47128;47.530;8.584;2023-04-24T11:43:10;17.30;76.50
61255;DHT22;47128;47.530;8.584;2023-04-24T11:45:35;16.90;76.50
61255;DHT22;47128;47.530;8.584;2023-04-24T11:48:02;16.70;77.20
61255;DHT22;47128;47.530;8.584;2023-04-24T11:50:28;15.60;78.50
61255;DHT22;47128;47.530;8.584;2023-04-24T11:52:54;15.60;80.00
61255;DHT22;47128;47.530;8.584;2023-04-24T12:02:44;14.70;80.80
61255;DHT22;47128;47.530;8.584;2023-04-24T12:05:18;15.40;81.10
61255;DHT22;47128;47.530;8.584;2023-04-24T12:07:45;15.70;78.10
61255;DHT22;47128;47.530;8.584;2023-04-24T12:10:11;15.60;78.30
61255;DHT22;47128;47.530;8.584;2023-04-24T12:12:37;15.50;78.50
61255;DHT22;47128;47.530;8.584;2023-04-24T12:15:07;15.50;79.10
61255;DHT22;47128;47.530;8.584;2023-04-24T12:17:35;15.70;80.20
61255;DHT22;47128;47.530;8.584;2023-04-24T12:20:06;16.10;79.70
61255;DHT22;47128;47.530;8.584;2023-04-24T12:22:47;16.60;79.40
61255;DHT22;47128;47.530;8.584;2023-04-24T12:28:24;17.30;76.70
61255;DHT22;47128;47.530;8.584;2023-04-24T12:33:53;16.60;78.00
61255;DHT22;47128;47.530;8.584;2023-04-24T12:39:23;16.30;78.10
61255;DHT22;47128;47.530;8.584;2023-04-24T12:41:55;16.30;78.20
61255;DHT22;47128;47.530;8.584;2023-04-24T12:47:28;16.10;78.90
61255;DHT22;47128;47.530;8.584;2023-04-24T12:49:54;16.00;77.70
61255;DHT22;47128;47.530;8.584;2023-04-24T12:52:21;16.10;77.40
61255;DHT22;47128;47.530;8.584;2023-04-24T12:54:47;15.80;78.30
61255;DHT22;47128;47.530;8.584;2023-04-24T13:00:08;15.70;79.10
61255;DHT22;47128;47.530;8.584;2023-04-24T13:02:35;15.70;78.80
61255;DHT22;47128;47.530;8.584;2023-04-24T13:05:02;16.10;79.10
61255;DHT22;47128;47.530;8.584;2023-04-24T13:13:34;16.90;77.80
61255;DHT22;47128;47.530;8.584;2023-04-24T13:16:00;17.10;75.00
61255;DHT22;47128;47.530;8.584;2023-04-24T13:18:25;17.10;75.20
61255;DHT22;47128;47.530;8.584;2023-04-24T13:20:51;16.60;75.30
61255;DHT22;47128;47.530;8.584;2023-04-24T13:23:17;16.20;75.60
61255;DHT22;47128;47.530;8.584;2023-04-24T13:25:43;15.90;75.70
61255;DHT22;47128;47.530;8.584;2023-04-24T13:28:08;15.60;76.60
61255;DHT22;47128;47.530;8.584;2023-04-24T13:30:35;15.60;76.90
61255;DHT22;47128;47.530;8.584;2023-04-24T13:33:00;15.50;77.10
61255;DHT22;47128;47.530;8.584;2023-04-24T13:35:27;15.60;77.10
61255;DHT22;47128;47.530;8.584;2023-04-24T13:37:53;15.90;77.00
61255;DHT22;47128;47.530;8.584;2023-04-24T13:40:18;15.90;76.90
61255;DHT22;47128;47.530;8.584;2023-04-24T13:42:44;16.00;76.20
61255;DHT22;47128;47.530;8.584;2023-04-24T13:45:10;16.00;76.40
61255;DHT22;47128;47.530;8.584;2023-04-24T13:47:36;16.20;76.80
61255;DHT22;47128;47.530;8.584;2023-04-24T13:50:01;16.20;75.50
61255;DHT22;47128;47.530;8.584;2023-04-24T13:58:33;16.30;76.40
61255;DHT22;47128;47.530;8.584;2023-04-24T14:10:08;16.80;76.40
61255;DHT22;47128;47.530;8.584;2023-04-24T14:15:37;15.50;78.50
61255;DHT22;47128;47.530;8.584;2023-04-24T14:18:03;14.80;79.80
61255;DHT22;47128;47.530;8.584;2023-04-24T14:22:57;14.70;83.70
61255;DHT22;47128;47.530;8.584;2023-04-24T14:25:25;14.80;86.00
61255;DHT22;47128;47.530;8.584;2023-04-24T14:30:54;14.60;84.40
61255;DHT22;47128;47.530;8.584;2023-04-24T14:33:20;14.70;83.20
61255;DHT22;47128;47.530;8.584;2023-04-24T14:35:46;14.60;82.90
61255;DHT22;47128;47.530;8.584;2023-04-24T14:38:12;14.70;82.80
61255;DHT22;47128;47.530;8.584;2023-04-24T14:40:38;14.80;81.50
61255;DHT22;47128;47.530;8.584;2023-04-24T14:43:03;14.80;81.60
61255;DHT22;47128;47.530;8.584;2023-04-24T14:45:29;15.00;80.30
61255;DHT22;47128;47.530;8.584;2023-04-24T14:47:55;15.10;80.10
61255;DHT22;47128;47.530;8.584;2023-04-24T14:50:21;15.10;79.30
61255;DHT22;47128;47.530;8.584;2023-04-24T14:52:46;15.10;79.60
61255;DHT22;47128;47.530;8.584;2023-04-24T14:55:12;15.10;78.30
61255;DHT22;47128;47.530;8.584;2023-04-24T15:00:42;15.50;77.50
61255;DHT22;47128;47.530;8.584;2023-04-24T15:03:08;15.30;77.00
61255;DHT22;47128;47.530;8.584;2023-04-24T15:08:22;14.70;77.50
61255;DHT22;47128;47.530;8.584;2023-04-24T15:13:51;14.50;78.40
61255;DHT22;47128;47.530;8.584;2023-04-24T15:19:20;14.50;79.00
61255;DHT22;47128;47.530;8.584;2023-04-24T15:24:48;14.40;78.90
61255;DHT22;47128;47.530;8.584;2023-04-24T15:27:38;14.30;79.50
61255;DHT22;47128;47.530;8.584;2023-04-24T15:30:04;14.30;80.40
61255;DHT22;47128;47.530;8.584;2023-04-24T15:35:33;14.60;78.80
61255;DHT22;47128;47.530;8.584;2023-04-24T15:37:59;14.50;79.00
61255;DHT22;47128;47.530;8.584;2023-04-24T15:40:25;14.70;78.40
61255;DHT22;47128;47.530;8.584;2023-04-24T15:45:53;14.70;77.90
61255;DHT22;47128;47.530;8.584;2023-04-24T15:48:28;14.70;77.90
61255;DHT22;47128;47.530;8.584;2023-04-24T15:50:54;14.40;77.90
61255;DHT22;47128;47.530;8.584;2023-04-24T16:02:29;14.40;79.20
61255;DHT22;47128;47.530;8.584;2023-04-24T16:04:55;14.40;78.50
61255;DHT22;47128;47.530;8.584;2023-04-24T16:07:21;14.50;78.90
61255;DHT22;47128;47.530;8.584;2023-04-24T16:09:47;14.50;78.60
61255;DHT22;47128;47.530;8.584;2023-04-24T16:12:12;14.30;78.90
61255;DHT22;47128;47.530;8.584;2023-04-24T16:14:38;14.20;79.80
61255;DHT22;47128;47.530;8.584;2023-04-24T16:17:05;14.20;80.50
61255;DHT22;47128;47.530;8.584;2023-04-24T16:19:31;14.20;80.70
61255;DHT22;47128;47.530;8.584;2023-04-24T16:21:58;14.10;87.10
61255;DHT22;47128;47.530;8.584;2023-04-24T16:24:24;13.90;86.00
61255;DHT22;47128;47.530;8.584;2023-04-24T16:26:50;13.40;89.00
61255;DHT22;47128;47.530;8.584;2023-04-24T16:29:16;13.30;92.60
61255;DHT22;47128;47.530;8.584;2023-04-24T16:34:07;12.80;92.80
61255;DHT22;47128;47.530;8.584;2023-04-24T16:36:34;12.80;93.40
61255;DHT22;47128;47.530;8.584;2023-04-24T16:38:59;12.80;95.10
61255;DHT22;47128;47.530;8.584;2023-04-24T16:41:26;12.90;96.00
61255;DHT22;47128;47.530;8.584;2023-04-24T16:43:51;13.00;94.30
61255;DHT22;47128;47.530;8.584;2023-04-24T16:46:18;13.30;96.80
61255;DHT22;47128;47.530;8.584;2023-04-24T16:48:43;13.50;99.60
61255;DHT22;47128;47.530;8.584;2023-04-24T16:51:09;13.60;99.90
61255;DHT22;47128;47.530;8.584;2023-04-24T16:53:35;13.50;99.90
61255;DHT22;47128;47.530;8.584;2023-04-24T16:56:01;13.30;99.90
61255;DHT22;47128;47.530;8.584;2023-04-24T16:58:27;13.00;99.90
61255;DHT22;47128;47.530;8.584;2023-04-24T17:00:53;12.90;98.70
61255;DHT22;47128;47.530;8.584;2023-04-24T17:03:18;13.00;99.90
61255;DHT22;47128;47.530;8.584;2023-04-24T17:05:44;13.20;99.30
61255;DHT22;47128;47.530;8.584;2023-04-24T17:08:09;13.30;99.00
61255;DHT22;47128;47.530;8.584;2023-04-24T17:10:35;13.30;98.40
61255;DHT22;47128;47.530;8.584;2023-04-24T17:13:00;13.30;99.90
61255;DHT22;47128;47.530;8.584;2023-04-24T17:15:26;13.50;97.30
61255;DHT22;47128;47.530;8.584;2023-04-24T17:17:51;13.60;98.80
61255;DHT22;47128;47.530;8.584;2023-04-24T17:20:17;13.60;99.10
61255;DHT22;47128;47.530;8.584;2023-04-24T17:22:43;13.50;93.00
61255;DHT22;47128;47.530;8.584;2023-04-24T17:25:09;13.40;93.40
61255;DHT22;47128;47.530;8.584;2023-04-24T17:27:34;13.50;93.50
61255;DHT22;47128;47.530;8.584;2023-04-24T17:30:00;13.50;93.80
61255;DHT22;47128;47.530;8.584;2023-04-24T17:32:25;13.50;91.30
61255;DHT22;47128;47.530;8.584;2023-04-24T17:34:51;13.60;91.60
61255;DHT22;47128;47.530;8.584;2023-04-24T17:37:16;13.70;93.50
61255;DHT22;47128;47.530;8.584;2023-04-24T17:39:44;13.60;91.10
61255;DHT22;47128;47.530;8.584;2023-04-24T17:42:10;13.60;91.80
61255;DHT22;47128;47.530;8.584;2023-04-24T17:44:35;13.50;92.30
61255;DHT22;47128;47.530;8.584;2023-04-24T17:47:02;13.40;92.90
61255;DHT22;47128;47.530;8.584;2023-04-24T17:49:29;13.30;91.40
61255;DHT22;47128;47.530;8.584;2023-04-24T17:51:54;13.30;93.20
61255;DHT22;47128;47.530;8.584;2023-04-24T17:54:20;13.20;91.90
61255;DHT22;47128;47.530;8.584;2023-04-24T17:56:46;13.10;92.00
61255;DHT22;47128;47.530;8.584;2023-04-24T17:59:12;13.00;93.10
61255;DHT22;47128;47.530;8.584;2023-04-24T18:01:38;12.90;93.00
61255;DHT22;47128;47.530;8.584;2023-04-24T18:04:03;12.80;92.60
61255;DHT22;47128;47.530;8.584;2023-04-24T18:06:29;12.80;92.00
61255;DHT22;47128;47.530;8.584;2023-04-24T18:08:54;12.70;93.00
61255;DHT22;47128;47.530;8.584;2023-04-24T18:11:20;12.60;92.70
61255;DHT22;47128;47.530;8.584;2023-04-24T18:13:46;12.60;92.60
61255;DHT22;47128;47.530;8.584;2023-04-24T18:16:12;12.50;91.60
61255;DHT22;47128;47.530;8.584;2023-04-24T18:18:38;12.50;91.50
61255;DHT22;47128;47.530;8.584;2023-04-24T18:21:04;12.50;91.60
61255;DHT22;47128;47.530;8.584;2023-04-24T18:23:29;12.40;91.60
61255;DHT22;47128;47.530;8.584;2023-04-24T18:25:55;12.30;92.20
61255;DHT22;47128;47.530;8.584;2023-04-24T18:28:20;12.30;92.30
61255;DHT22;47128;47.530;8.584;2023-04-24T18:30:46;12.30;91.50
61255;DHT22;47128;47.530;8.584;2023-04-24T18:33:11;12.20;91.80
61255;DHT22;47128;47.530;8.584;2023-04-24T18:35:37;12.30;94.00
61255;DHT22;47128;47.530;8.584;2023-04-24T18:38:03;12.10;91.50
61255;DHT22;47128;47.530;8.584;2023-04-24T18:40:28;12.10;91.80
61255;DHT22;47128;47.530;8.584;2023-04-24T18:42:57;12.00;91.80
61255;DHT22;47128;47.530;8.584;2023-04-24T18:45:22;12.00;93.40
61255;DHT22;47128;47.530;8.584;2023-04-24T18:47:48;11.90;93.60
61255;DHT22;47128;47.530;8.584;2023-04-24T18:50:14;11.90;93.50
61255;DHT22;47128;47.530;8.584;2023-04-24T18:52:39;11.80;94.80